This is the latest recevied weather packets stored in our database for station/object SQ5JP-4. If no packets are shown the sender has not sent any weather packets the latest 10 day(s).
| Time | Temp. | Humidity | Pressure | Rain* | Wind** | Luminosity | Snow |
|---|---|---|---|---|---|---|---|
| 1787851122 | 18.89° C | 100% | 1005.1 hPa | - | - | - | - |
| 1787848422 | 22.78° C | 100% | 1005 hPa | - | - | - | - |
| 1787847522 | 21.67° C | 100% | 1005.1 hPa | - | - | - | - |
| 1787846622 | 21.67° C | 100% | 1005.1 hPa | - | - | - | - |
| 1787844822 | 22.22° C | 98% | 1005.2 hPa | - | - | - | - |
| 1787843921 | 22.78° C | 100% | 1005.3 hPa | - | - | - | - |
| 1787843021 | 23.33° C | 87% | 1005.2 hPa | - | - | - | - |
| 1787842122 | 24.44° C | 92% | 1005.3 hPa | - | - | - | - |
| 1787841221 | 27.22° C | 61% | 1005.3 hPa | - | - | - | - |
| 1787840321 | 25.56° C | 81% | 1005.3 hPa | - | - | - | - |
| 1787838521 | 28.33° C | 68% | 1005.4 hPa | - | - | - | - |
| 1787830422 | 24.44° C | 100% | 1006.2 hPa | - | - | - | - |
| 1787829522 | 21.11° C | 100% | 1006.3 hPa | - | - | - | - |
| 1787828622 | 22.78° C | 100% | 1006.4 hPa | - | - | - | - |
| 1787827722 | 23.33° C | 100% | 1006.4 hPa | - | - | - | - |
| 1787826821 | 23.33° C | 100% | 1006.5 hPa | - | - | - | - |
| 1787825921 | 21.67° C | 100% | 1006.4 hPa | - | - | - | - |
| 1787825021 | 22.22° C | 100% | 1006.5 hPa | - | - | - | - |
| 1787824121 | 22.22° C | 100% | 1006.4 hPa | - | - | - | - |
| 1787823221 | 22.22° C | 100% | 1006.4 hPa | - | - | - | - |
| 1787822321 | 21.11° C | 100% | 1006.6 hPa | - | - | - | - |
| 1787821421 | 21.11° C | 100% | 1006.7 hPa | - | - | - | - |
| 1787819621 | 20° C | 100% | 1006.6 hPa | - | - | - | - |
| 1787818721 | 19.44° C | 100% | 1006.7 hPa | - | - | - | - |
| 1787817820 | 18.89° C | 100% | 1006.3 hPa | - | - | - | - |
* Rain since midnight (hover to see other rain measurements)
** Current wind speed in m/s (hover to see current wind gust speed)